createdAt,value
2023-01-15T00:00:10.280Z,1.00
2023-01-15T00:02:58.753Z,1.70
2023-01-15T00:05:29.140Z,1.30
2023-01-15T00:07:59.174Z,1.20
2023-01-15T00:10:27.955Z,1.60
2023-01-15T00:12:56.944Z,1.20
2023-01-15T00:15:25.934Z,1.30
2023-01-15T00:17:55.036Z,1.40
2023-01-15T00:20:24.007Z,1.30
2023-01-15T00:22:52.591Z,1.60
2023-01-15T00:25:40.433Z,1.30
2023-01-15T00:28:09.433Z,1.40
2023-01-15T00:30:43.716Z,1.50
2023-01-15T00:33:12.423Z,1.20
2023-01-15T00:35:41.634Z,1.70
2023-01-15T00:38:10.315Z,1.90
2023-01-15T00:40:38.888Z,1.60
2023-01-15T00:43:07.803Z,1.60
2023-01-15T00:45:36.279Z,1.90
2023-01-15T00:48:05.686Z,1.80
2023-01-15T00:50:34.253Z,1.90
2023-01-15T00:53:03.056Z,1.70
2023-01-15T00:55:31.693Z,1.70
2023-01-15T00:58:00.416Z,1.70
2023-01-15T01:00:29.345Z,1.50
2023-01-15T01:02:59.207Z,2.00
2023-01-15T01:05:29.040Z,2.10
2023-01-15T01:07:59.575Z,1.90
2023-01-15T01:10:29.563Z,1.90
2023-01-15T01:12:58.862Z,1.40
2023-01-15T01:15:27.353Z,1.80
2023-01-15T01:17:56.339Z,1.50
2023-01-15T01:20:25.234Z,1.60
2023-01-15T01:22:54.527Z,1.70
2023-01-15T01:25:23.930Z,2.00
2023-01-15T01:27:53.234Z,1.80
2023-01-15T01:30:22.536Z,1.60
2023-01-15T01:32:51.751Z,1.40
2023-01-15T01:35:20.213Z,1.70
2023-01-15T01:37:52.469Z,1.30
2023-01-15T01:40:20.977Z,1.70
2023-01-15T01:42:49.946Z,1.70
2023-01-15T01:45:25.649Z,1.70
2023-01-15T01:48:01.447Z,1.60
2023-01-15T01:50:32.033Z,1.60
2023-01-15T01:53:05.333Z,2.10
2023-01-15T01:55:35.453Z,1.60
2023-01-15T01:58:05.816Z,2.00
2023-01-15T02:00:36.619Z,1.90
2023-01-15T02:03:08.711Z,1.60
2023-01-15T02:05:44.695Z,1.50
2023-01-15T02:08:13.678Z,1.60
2023-01-15T02:10:42.243Z,1.30
2023-01-15T02:13:15.679Z,1.70
2023-01-15T02:15:51.841Z,1.70
2023-01-15T02:18:28.292Z,2.00
2023-01-15T02:21:09.353Z,1.60
2023-01-15T02:24:05.704Z,1.40
2023-01-15T02:27:04.692Z,1.70
2023-01-15T02:29:53.636Z,1.90
2023-01-15T02:32:50.703Z,1.30
2023-01-15T02:35:29.114Z,1.30
2023-01-15T02:38:01.171Z,1.40
2023-01-15T02:40:30.280Z,1.70
2023-01-15T02:42:59.990Z,1.30
2023-01-15T02:45:32.564Z,1.40
2023-01-15T02:48:14.656Z,1.50
2023-01-15T02:50:56.251Z,2.10
2023-01-15T02:53:30.210Z,1.50
2023-01-15T02:56:04.171Z,1.20
2023-01-15T02:58:39.692Z,1.10
2023-01-15T03:01:15.100Z,1.50
2023-01-15T03:03:57.273Z,1.40
2023-01-15T03:06:33.212Z,1.00
2023-01-15T03:09:02.611Z,1.30
2023-01-15T03:11:38.252Z,1.40
2023-01-15T03:14:22.514Z,1.40
2023-01-15T03:16:56.400Z,1.20
2023-01-15T03:19:28.710Z,1.20
2023-01-15T03:22:00.434Z,1.10
2023-01-15T03:24:39.777Z,1.00
2023-01-15T03:27:10.934Z,1.00
2023-01-15T03:29:43.661Z,1.20
2023-01-15T03:32:13.395Z,1.10
2023-01-15T03:34:48.194Z,1.00
2023-01-15T03:37:20.602Z,1.20
2023-01-15T03:39:50.716Z,1.50
2023-01-15T03:42:23.312Z,1.00
2023-01-15T03:45:03.281Z,1.20
2023-01-15T03:47:54.992Z,1.40
2023-01-15T03:50:26.218Z,1.00
2023-01-15T03:53:13.438Z,1.20
2023-01-15T03:55:55.635Z,0.90
2023-01-15T03:58:31.155Z,1.10
2023-01-15T04:01:02.099Z,1.20
2023-01-15T04:03:31.622Z,1.10
2023-01-15T04:06:02.579Z,1.00
2023-01-15T04:08:34.347Z,1.10
2023-01-15T04:11:03.006Z,1.10
2023-01-15T04:13:34.565Z,0.90
2023-01-15T04:16:07.011Z,0.80
2023-01-15T04:18:36.872Z,1.00
2023-01-15T04:21:05.957Z,0.90
2023-01-15T04:23:35.961Z,1.00
2023-01-15T04:26:04.653Z,0.90
2023-01-15T04:28:33.351Z,1.00
2023-01-15T04:31:01.928Z,1.10
2023-01-15T04:33:30.819Z,1.00
2023-01-15T04:36:01.358Z,1.30
2023-01-15T04:38:30.239Z,1.10
2023-01-15T04:41:21.537Z,1.20
2023-01-15T04:44:08.854Z,1.20
2023-01-15T04:46:40.151Z,1.20
2023-01-15T04:49:13.872Z,1.20
2023-01-15T04:51:42.600Z,1.30
2023-01-15T04:54:13.751Z,1.00
2023-01-15T04:56:47.811Z,1.00
2023-01-15T04:59:17.766Z,1.20
2023-01-15T05:02:02.002Z,1.20
2023-01-15T05:04:33.074Z,1.10
2023-01-15T05:07:05.655Z,1.10
2023-01-15T05:09:34.312Z,1.20
2023-01-15T05:12:03.421Z,1.10
2023-01-15T05:14:32.317Z,0.90
2023-01-15T05:17:00.904Z,1.80
2023-01-15T05:19:29.566Z,1.60
2023-01-15T05:21:58.158Z,1.30
2023-01-15T05:24:26.940Z,1.30
2023-01-15T05:26:56.239Z,1.40
2023-01-15T05:29:24.612Z,1.20
2023-01-15T05:31:53.202Z,1.30
2023-01-15T05:34:21.881Z,2.00
2023-01-15T05:36:50.370Z,1.20
2023-01-15T05:39:18.949Z,1.40
2023-01-15T05:41:50.817Z,1.40
2023-01-15T05:44:25.272Z,1.40
2023-01-15T05:46:56.740Z,1.40
2023-01-15T05:49:27.041Z,1.50
2023-01-15T05:51:56.043Z,1.50
2023-01-15T05:54:35.224Z,1.40
2023-01-15T05:57:04.114Z,1.40
2023-01-15T05:59:33.323Z,1.40
2023-01-15T06:02:02.171Z,1.30
2023-01-15T06:04:30.905Z,1.20
2023-01-15T06:06:59.377Z,1.40
2023-01-15T06:09:29.787Z,1.10
2023-01-15T06:11:58.793Z,1.30
2023-01-15T06:14:27.268Z,1.20
2023-01-15T06:16:56.073Z,1.00
2023-01-15T06:19:24.759Z,1.30
2023-01-15T06:21:53.340Z,1.10
2023-01-15T06:24:22.224Z,1.10
2023-01-15T06:26:50.716Z,0.90
2023-01-15T06:29:20.917Z,1.30
2023-01-15T06:31:49.949Z,1.30
2023-01-15T06:34:18.697Z,1.00
2023-01-15T06:36:47.396Z,0.90
2023-01-15T06:39:16.716Z,1.20
2023-01-15T06:42:03.834Z,1.20
2023-01-15T06:44:51.332Z,1.30
2023-01-15T06:47:21.353Z,0.90
2023-01-15T06:49:53.158Z,1.20
2023-01-15T06:52:23.014Z,0.80
2023-01-15T06:54:52.054Z,1.00
2023-01-15T06:57:21.541Z,1.30
2023-01-15T06:59:51.015Z,0.90
2023-01-15T07:02:22.048Z,1.20
2023-01-15T07:04:52.318Z,1.00
2023-01-15T07:07:21.674Z,1.20
2023-01-15T07:09:50.950Z,1.10
2023-01-15T07:12:19.991Z,1.30
2023-01-15T07:14:48.977Z,1.40
2023-01-15T07:17:17.652Z,1.50
2023-01-15T07:19:46.851Z,1.20
2023-01-15T07:22:16.373Z,1.20
2023-01-15T07:24:45.042Z,1.40
2023-01-15T07:27:13.624Z,1.30
2023-01-15T07:29:42.203Z,1.00
2023-01-15T07:32:11.520Z,1.60
2023-01-15T07:34:40.217Z,1.40
2023-01-15T07:37:09.012Z,1.30
2023-01-15T07:39:37.863Z,1.10
2023-01-15T07:42:25.303Z,1.30
2023-01-15T07:45:13.141Z,1.50
2023-01-15T07:48:01.060Z,1.30
2023-01-15T07:50:29.876Z,1.50
2023-01-15T07:52:58.855Z,1.60
2023-01-15T07:55:27.544Z,1.50
2023-01-15T07:57:56.640Z,1.60
2023-01-15T08:00:26.020Z,1.70
2023-01-15T08:02:54.939Z,1.20
2023-01-15T08:05:23.816Z,1.50
2023-01-15T08:07:52.393Z,1.40
2023-01-15T08:10:21.199Z,1.40
2023-01-15T08:13:09.735Z,1.60
2023-01-15T08:15:41.502Z,1.60
2023-01-15T08:18:10.515Z,1.80
2023-01-15T08:20:39.269Z,1.70
2023-01-15T08:23:08.073Z,1.80
2023-01-15T08:25:37.461Z,1.80
2023-01-15T08:28:06.447Z,1.70
2023-01-15T08:30:34.936Z,1.90
2023-01-15T08:33:04.099Z,1.70
2023-01-15T08:35:34.603Z,1.80
2023-01-15T08:38:09.738Z,2.80
2023-01-15T08:40:58.886Z,2.70
2023-01-15T08:43:29.095Z,1.90
2023-01-15T08:45:59.632Z,2.10
2023-01-15T08:48:30.233Z,1.80
2023-01-15T08:50:59.134Z,2.10
2023-01-15T08:53:30.007Z,2.20
2023-01-15T08:55:59.468Z,2.20
2023-01-15T08:58:32.748Z,2.20
2023-01-15T09:01:06.357Z,1.90
2023-01-15T09:03:36.058Z,1.80
2023-01-15T09:06:06.407Z,2.00
2023-01-15T09:08:35.463Z,2.10
2023-01-15T09:11:06.367Z,2.10
2023-01-15T09:13:35.015Z,1.70
2023-01-15T09:16:05.706Z,2.40
2023-01-15T09:18:36.261Z,2.10
2023-01-15T09:21:08.235Z,2.00
2023-01-15T09:23:37.035Z,2.00
2023-01-15T09:26:07.616Z,2.30
2023-01-15T09:28:36.639Z,1.60
2023-01-15T09:31:05.783Z,1.50
2023-01-15T09:33:34.669Z,1.70
2023-01-15T09:36:04.213Z,1.80
2023-01-15T09:38:35.101Z,1.90
2023-01-15T09:41:30.893Z,2.30
2023-01-15T09:44:13.194Z,1.80
2023-01-15T09:47:00.632Z,1.70
2023-01-15T09:50:07.933Z,2.00
2023-01-15T09:53:02.171Z,1.90
2023-01-15T09:55:33.441Z,1.80
2023-01-15T09:58:05.832Z,1.60
2023-01-15T10:00:41.069Z,2.00
2023-01-15T10:03:30.870Z,2.00
2023-01-15T10:06:38.491Z,1.80
2023-01-15T10:09:12.442Z,1.70
2023-01-15T10:12:05.503Z,1.90
2023-01-15T10:14:46.522Z,1.80
2023-01-15T10:17:47.587Z,1.60
2023-01-15T10:20:42.714Z,1.80
2023-01-15T10:23:38.704Z,2.60
2023-01-15T10:26:19.122Z,1.70
2023-01-15T10:29:00.218Z,1.70
2023-01-15T10:32:17.661Z,2.00
2023-01-15T10:34:52.333Z,1.90
2023-01-15T10:37:33.534Z,2.10
2023-01-15T10:40:17.846Z,2.20
2023-01-15T10:42:50.054Z,2.30
2023-01-15T10:45:26.643Z,1.70
2023-01-15T10:48:03.533Z,1.70
2023-01-15T10:50:33.912Z,1.80
2023-01-15T10:53:06.616Z,1.70
2023-01-15T10:55:47.253Z,2.20
2023-01-15T10:58:34.893Z,1.80
2023-01-15T11:01:13.740Z,1.50
2023-01-15T11:03:44.936Z,1.50
2023-01-15T11:06:19.363Z,1.70
2023-01-15T11:09:10.661Z,2.60
2023-01-15T11:12:02.248Z,2.80
2023-01-15T11:14:59.987Z,2.20
2023-01-15T11:17:55.200Z,2.40
2023-01-15T11:20:32.072Z,1.90
2023-01-15T11:23:16.117Z,1.70
2023-01-15T11:25:54.674Z,2.10
2023-01-15T11:28:40.753Z,1.80
2023-01-15T11:31:11.661Z,1.90
2023-01-15T11:33:41.677Z,2.10
2023-01-15T11:36:23.249Z,2.00
2023-01-15T11:38:52.682Z,2.10
2023-01-15T11:41:51.954Z,2.00
2023-01-15T11:44:42.979Z,1.70
2023-01-15T11:47:32.079Z,1.90
2023-01-15T11:50:19.503Z,2.60
2023-01-15T11:52:53.868Z,1.90
2023-01-15T11:55:25.545Z,2.20
2023-01-15T11:57:54.615Z,2.10
2023-01-15T12:00:26.053Z,2.10
2023-01-15T12:03:06.406Z,2.30
2023-01-15T12:05:36.713Z,2.00
2023-01-15T12:08:38.735Z,2.20
2023-01-15T12:11:26.712Z,2.00
2023-01-15T12:14:30.077Z,2.40
2023-01-15T12:17:33.377Z,2.50
2023-01-15T12:20:12.426Z,2.40
2023-01-15T12:23:06.180Z,2.20
2023-01-15T12:26:31.558Z,2.10
2023-01-15T12:29:15.101Z,1.80
2023-01-15T12:31:56.193Z,2.00
2023-01-15T12:34:31.597Z,2.30
2023-01-15T12:37:30.802Z,2.00
2023-01-15T12:40:07.902Z,2.40
2023-01-15T12:42:56.672Z,2.90
2023-01-15T12:45:38.727Z,2.60
2023-01-15T12:48:27.015Z,1.20
2023-01-15T12:51:00.117Z,1.00
2023-01-15T12:53:46.722Z,1.00
2023-01-15T12:56:25.721Z,0.60
2023-01-15T12:59:21.951Z,0.90
2023-01-15T13:01:58.587Z,0.80
2023-01-15T13:04:52.615Z,0.70
2023-01-15T13:07:36.786Z,0.90
2023-01-15T13:10:11.631Z,1.00
2023-01-15T13:12:40.578Z,1.10
2023-01-15T13:15:15.069Z,1.00
2023-01-15T13:18:03.135Z,1.20
2023-01-15T13:20:41.650Z,1.30
2023-01-15T13:23:19.451Z,1.20
2023-01-15T13:26:03.086Z,1.10
2023-01-15T13:28:46.317Z,1.30
2023-01-15T13:31:48.517Z,1.20
2023-01-15T13:34:30.375Z,0.90
2023-01-15T13:37:05.624Z,0.90
2023-01-15T13:39:42.829Z,1.20
2023-01-15T13:42:34.951Z,1.20
2023-01-15T13:45:34.599Z,1.50
2023-01-15T13:48:09.339Z,1.30
2023-01-15T13:50:42.751Z,1.50
2023-01-15T13:53:21.697Z,1.30
2023-01-15T13:56:06.360Z,1.30
2023-01-15T13:58:40.683Z,1.10
2023-01-15T14:01:20.161Z,1.20
2023-01-15T14:03:57.186Z,0.90
2023-01-15T14:06:44.164Z,1.20
2023-01-15T14:09:30.189Z,1.40
2023-01-15T14:12:08.638Z,1.40
2023-01-15T14:15:16.841Z,1.60
2023-01-15T14:18:19.933Z,1.60
2023-01-15T14:21:11.484Z,1.50
2023-01-15T14:24:13.493Z,0.80
2023-01-15T14:27:25.608Z,1.30
2023-01-15T14:30:23.828Z,1.40
2023-01-15T14:33:20.093Z,1.20
2023-01-15T14:35:50.344Z,1.50
2023-01-15T14:38:23.687Z,1.30
2023-01-15T14:41:02.967Z,1.20
2023-01-15T14:43:35.647Z,1.60
2023-01-15T14:46:42.753Z,1.50
2023-01-15T14:49:32.667Z,1.20
2023-01-15T14:52:03.983Z,1.40
2023-01-15T14:54:34.828Z,2.20
2023-01-15T14:57:09.776Z,2.20
2023-01-15T14:59:48.720Z,1.40
2023-01-15T15:02:25.694Z,1.60
2023-01-15T15:05:03.434Z,1.40
2023-01-15T15:07:39.035Z,1.10
2023-01-15T15:10:36.479Z,1.50
2023-01-15T15:13:29.180Z,1.40
2023-01-15T15:16:25.788Z,1.80
2023-01-15T15:19:05.079Z,2.60
2023-01-15T15:21:38.766Z,1.90
2023-01-15T15:24:35.068Z,2.40
2023-01-15T15:27:24.362Z,2.30
2023-01-15T15:30:07.157Z,2.70
2023-01-15T15:32:41.483Z,2.10
2023-01-15T15:35:29.881Z,1.90
2023-01-15T15:38:03.129Z,2.00
2023-01-15T15:40:37.931Z,2.00
2023-01-15T15:43:34.112Z,1.90
2023-01-15T15:46:22.570Z,2.00
2023-01-15T15:48:59.841Z,1.90
2023-01-15T15:51:38.464Z,1.80
2023-01-15T15:54:13.655Z,1.90
2023-01-15T15:57:04.312Z,1.70
2023-01-15T15:59:54.707Z,1.50
2023-01-15T16:02:42.019Z,2.10
2023-01-15T16:05:23.208Z,2.30
2023-01-15T16:07:53.404Z,2.30
2023-01-15T16:10:36.352Z,2.90
2023-01-15T16:13:10.604Z,2.10
2023-01-15T16:15:42.517Z,2.60
2023-01-15T16:18:29.160Z,3.50
2023-01-15T16:20:59.732Z,2.80
2023-01-15T16:23:31.836Z,2.60
2023-01-15T16:26:14.733Z,2.60
2023-01-15T16:28:53.866Z,2.10
2023-01-15T16:31:26.105Z,2.20
2023-01-15T16:34:00.587Z,2.30
2023-01-15T16:36:43.630Z,2.20
2023-01-15T16:39:34.804Z,2.40
2023-01-15T16:42:07.016Z,3.60
2023-01-15T16:44:52.122Z,4.50
2023-01-15T16:47:28.861Z,3.10
2023-01-15T16:50:41.354Z,2.50
2023-01-15T16:53:39.369Z,2.40
2023-01-15T16:59:42.581Z,2.60
2023-01-15T17:02:27.093Z,2.40
2023-01-15T17:05:17.242Z,2.80
2023-01-15T17:07:55.376Z,2.00
2023-01-15T17:10:28.213Z,2.40
2023-01-15T17:13:04.166Z,2.40
2023-01-15T17:15:42.309Z,2.50
2023-01-15T17:18:28.297Z,2.10
2023-01-15T17:21:00.631Z,2.20
2023-01-15T17:23:42.099Z,2.50
2023-01-15T17:26:26.196Z,2.70
2023-01-15T17:29:00.532Z,2.10
2023-01-15T17:31:37.756Z,2.70
2023-01-15T17:34:08.745Z,2.00
2023-01-15T17:36:44.018Z,2.20
2023-01-15T17:39:20.440Z,2.50
2023-01-15T17:41:53.580Z,2.10
2023-01-15T17:44:28.639Z,2.40
2023-01-15T17:47:06.103Z,2.40
2023-01-15T17:49:42.910Z,2.80
2023-01-15T17:52:20.594Z,2.60
2023-01-15T17:55:11.312Z,2.90
2023-01-15T17:58:01.048Z,3.30
2023-01-15T18:00:52.305Z,3.20
2023-01-15T18:03:42.091Z,3.50
2023-01-15T18:06:15.000Z,3.60
2023-01-15T18:08:50.671Z,3.60
2023-01-15T18:11:22.991Z,3.70
2023-01-15T18:13:54.233Z,4.00
2023-01-15T18:16:27.084Z,4.10
2023-01-15T18:19:03.893Z,3.60
2023-01-15T18:21:44.256Z,3.00
2023-01-15T18:24:18.521Z,4.30
2023-01-15T18:26:51.456Z,3.80
2023-01-15T18:29:31.107Z,3.60
2023-01-15T18:32:10.439Z,3.30
2023-01-15T18:34:40.922Z,2.50
2023-01-15T18:37:14.920Z,2.20
2023-01-15T18:39:47.253Z,2.00
2023-01-15T18:42:39.693Z,2.70
2023-01-15T18:45:29.771Z,2.40
2023-01-15T18:48:03.435Z,2.60
2023-01-15T18:50:36.091Z,2.40
2023-01-15T18:53:09.676Z,2.30
2023-01-15T18:55:41.749Z,2.00
2023-01-15T18:58:12.756Z,1.80
2023-01-15T19:00:45.786Z,2.40
2023-01-15T19:03:16.685Z,2.30
2023-01-15T19:05:48.176Z,2.30
2023-01-15T19:08:22.532Z,2.50
2023-01-15T19:10:55.068Z,2.00
2023-01-15T19:13:28.581Z,2.20
2023-01-15T19:16:18.490Z,2.40
2023-01-15T19:18:53.892Z,2.00
2023-01-15T19:21:30.780Z,2.50
2023-01-15T19:24:04.762Z,2.30
2023-01-15T19:26:36.468Z,2.20
2023-01-15T19:29:08.985Z,2.20
2023-01-15T19:31:44.085Z,1.60
2023-01-15T19:34:33.036Z,2.40
2023-01-15T19:37:06.627Z,2.10
2023-01-15T19:39:42.234Z,2.10
2023-01-15T19:42:34.350Z,1.50
2023-01-15T19:45:30.940Z,1.60
2023-01-15T19:48:22.087Z,1.70
2023-01-15T19:50:56.417Z,2.30
2023-01-15T19:53:27.784Z,1.90
2023-01-15T19:55:59.340Z,6.00
2023-01-15T19:58:32.777Z,4.70
2023-01-15T20:01:05.447Z,2.80
2023-01-15T20:03:35.636Z,2.50
2023-01-15T20:06:12.692Z,2.30
2023-01-15T20:08:45.726Z,2.10
2023-01-15T20:11:17.323Z,2.50
2023-01-15T20:13:53.727Z,2.80
2023-01-15T20:16:36.492Z,2.90
2023-01-15T20:19:09.107Z,2.80
2023-01-15T20:21:43.866Z,3.10
2023-01-15T20:24:15.573Z,2.70
2023-01-15T20:26:47.436Z,2.80
2023-01-15T20:29:19.380Z,2.90
2023-01-15T20:31:50.340Z,2.60
2023-01-15T20:34:23.022Z,2.90
2023-01-15T20:36:54.322Z,2.00
2023-01-15T20:39:26.331Z,2.80
2023-01-15T20:42:23.478Z,3.30
2023-01-15T20:44:54.888Z,2.80
2023-01-15T20:47:47.476Z,3.10
2023-01-15T20:50:19.599Z,3.10
2023-01-15T20:52:53.795Z,3.30
2023-01-15T20:55:26.574Z,3.30
2023-01-15T20:57:58.625Z,3.10
2023-01-15T21:00:31.591Z,3.60
2023-01-15T21:03:03.845Z,3.20
2023-01-15T21:05:36.265Z,3.30
2023-01-15T21:08:07.749Z,3.40
2023-01-15T21:10:38.004Z,2.40
2023-01-15T21:13:09.628Z,3.20
2023-01-15T21:15:39.799Z,2.20
2023-01-15T21:18:10.106Z,2.30
2023-01-15T21:20:40.147Z,2.90
2023-01-15T21:23:09.715Z,3.10
2023-01-15T21:25:40.350Z,2.40
2023-01-15T21:28:10.685Z,2.10
2023-01-15T21:30:42.324Z,1.80
2023-01-15T21:33:11.934Z,1.80
2023-01-15T21:35:43.709Z,1.40
2023-01-15T21:38:12.393Z,2.20
2023-01-15T21:40:42.722Z,1.90
2023-01-15T21:43:30.330Z,2.10
2023-01-15T21:46:05.660Z,1.60
2023-01-15T21:48:34.971Z,1.50
2023-01-15T21:51:07.078Z,1.80
2023-01-15T21:53:35.831Z,1.60
2023-01-15T21:56:05.402Z,2.70
2023-01-15T21:58:38.717Z,2.10
2023-01-15T22:01:15.079Z,1.40
2023-01-15T22:03:46.353Z,1.50
2023-01-15T22:06:15.592Z,1.10
2023-01-15T22:08:44.733Z,1.10
2023-01-15T22:11:13.932Z,1.20
2023-01-15T22:13:43.016Z,0.80
2023-01-15T22:16:12.831Z,1.40
2023-01-15T22:18:42.453Z,1.00
2023-01-15T22:21:15.831Z,1.00
2023-01-15T22:23:45.044Z,1.00
2023-01-15T22:26:21.508Z,0.90
2023-01-15T22:28:51.932Z,1.10
2023-01-15T22:31:21.142Z,1.20
2023-01-15T22:33:50.013Z,1.20
2023-01-15T22:36:20.091Z,1.20
2023-01-15T22:38:49.426Z,0.80
2023-01-15T22:41:41.254Z,1.00
2023-01-15T22:44:10.345Z,0.90
2023-01-15T22:46:39.055Z,0.90
2023-01-15T22:49:07.932Z,1.10
2023-01-15T22:51:36.506Z,1.40
2023-01-15T22:54:05.748Z,0.80
2023-01-15T22:56:34.288Z,0.90
2023-01-15T22:59:04.196Z,0.90
2023-01-15T23:01:33.683Z,1.10
2023-01-15T23:04:02.416Z,1.10
2023-01-15T23:06:31.193Z,0.90
2023-01-15T23:09:01.783Z,1.30
2023-01-15T23:11:30.913Z,1.30
2023-01-15T23:14:00.109Z,0.90
2023-01-15T23:16:28.806Z,0.80
2023-01-15T23:18:57.577Z,1.00
2023-01-15T23:21:26.667Z,1.10
2023-01-15T23:23:56.928Z,0.80
2023-01-15T23:26:27.587Z,1.00
2023-01-15T23:28:57.639Z,1.10
2023-01-15T23:31:27.255Z,1.20
2023-01-15T23:33:56.340Z,1.00
2023-01-15T23:36:25.682Z,1.00
2023-01-15T23:38:54.562Z,1.30
2023-01-15T23:41:44.763Z,1.10
2023-01-15T23:44:37.271Z,1.20
2023-01-15T23:47:07.493Z,1.10
2023-01-15T23:49:36.290Z,1.20
2023-01-15T23:52:05.274Z,1.10
2023-01-15T23:54:34.070Z,1.10
2023-01-15T23:57:02.978Z,1.20
2023-01-15T23:59:31.977Z,1.20
